Time;durP1;ratioP1;P1;durP2;ratioP2;P2;SDS_P1;SDS_P2;PMS_P1;PMS_P2;Temp;Humidity;BMP_temperature;BMP_pressure;BME280_temperature;BME280_humidity;BME280_pressure;Samples;Min_cycle;Max_cycle;Signal;HPM_P1;HPM_P2
2022/01/12 00:01:28;;;;;;;;;49.00;42.75;;;;;;;;5004207;28;45630;-82
2022/01/12 00:03:53;;;;;;;;;55.33;42.33;;;;;;;;4996701;28;46468;-81
2022/01/12 00:06:18;;;;;;;;;49.67;44.00;;;;;;;;4993081;28;45624;-82
2022/01/12 00:08:43;;;;;;;;;60.67;44.00;;;;;;;;4981700;28;45345;-82
2022/01/12 00:11:09;;;;;;;;;52.33;43.33;;;;;;;;4997029;28;45726;-82
2022/01/12 00:13:34;;;;;;;;;58.67;46.33;;;;;;;;4992664;28;45551;-82
2022/01/12 00:16:01;;;;;;;;;50.75;42.50;;;;;;;;4975582;28;45451;-82
2022/01/12 00:18:27;;;;;;;;;54.50;46.50;;;;;;;;4981119;28;45675;-81
2022/01/12 00:20:54;;;;;;;;;59.00;47.50;;;;;;;;4994147;28;45486;-82
2022/01/12 00:23:19;;;;;;;;;63.50;48.75;;;;;;;;4990953;28;46535;-81
2022/01/12 00:26:08;;;;;;;;;64.33;48.00;;;;;;;;4992351;28;45464;-82
2022/01/12 00:34:00;;;;;;;;;51.75;46.25;;;;;;;;5009882;28;45384;-82
2022/01/12 00:36:25;;;;;;;;;56.50;46.75;;;;;;;;4977112;28;45591;-81
2022/01/12 00:38:50;;;;;;;;;59.50;45.00;;;;;;;;4998675;28;45158;-82
2022/01/12 00:41:17;;;;;;;;;54.33;47.00;;;;;;;;5001341;28;45513;-82
2022/01/12 00:43:45;;;;;;;;;56.25;44.50;;;;;;;;4989631;28;47651;-82
2022/01/12 00:46:10;;;;;;;;;62.00;48.25;;;;;;;;4999070;28;45435;-81
2022/01/12 00:48:36;;;;;;;;;58.00;46.00;;;;;;;;5005233;28;45428;-81
2022/01/12 00:51:02;;;;;;;;;52.00;43.50;;;;;;;;4979779;28;45560;-82
2022/01/12 00:53:28;;;;;;;;;59.00;43.00;;;;;;;;4997530;28;46860;-82
2022/01/12 00:55:53;;;;;;;;;60.00;46.50;;;;;;;;4984472;28;45555;-82
2022/01/12 00:58:18;;;;;;;;;55.00;44.67;;;;;;;;4986094;28;45463;-82
2022/01/12 01:00:43;;;;;;;;;56.67;46.33;;;;;;;;4984568;28;45293;-81
2022/01/12 01:03:09;;;;;;;;;61.00;46.67;;;;;;;;4967405;28;47003;-82
2022/01/12 01:05:34;;;;;;;;;63.00;47.00;;;;;;;;4996392;28;45155;-81
2022/01/12 01:08:00;;;;;;;;;49.33;43.00;;;;;;;;4990935;28;45518;-82
2022/01/12 01:13:09;;;;;;;;;52.25;42.50;;;;;;;;4992881;28;45450;-82
2022/01/12 01:26:27;;;;;;;;;43.00;39.25;;;;;;;;4989708;28;45505;-81
2022/01/12 01:28:52;;;;;;;;;60.67;47.33;;;;;;;;4990412;28;45526;-81
2022/01/12 01:31:19;;;;;;;;;54.33;43.67;;;;;;;;4971757;28;45524;-82
2022/01/12 01:33:45;;;;;;;;;60.25;46.25;;;;;;;;4989761;28;46325;-81
2022/01/12 01:36:10;;;;;;;;;53.33;43.33;;;;;;;;4972811;28;45755;-82
2022/01/12 01:38:35;;;;;;;;;59.33;43.00;;;;;;;;4989805;28;45503;-81
2022/01/12 01:41:00;;;;;;;;;49.67;43.00;;;;;;;;4995095;28;46244;-81
2022/01/12 01:54:03;;;;;;;;;52.75;43.25;;;;;;;;4990407;28;45565;-81
2022/01/12 01:56:29;;;;;;;;;65.25;47.50;;;;;;;;4990149;28;45482;-82
2022/01/12 01:58:54;;;;;;;;;52.50;45.25;;;;;;;;4989705;28;45487;-81
2022/01/12 02:01:20;;;;;;;;;61.00;46.75;;;;;;;;4989864;28;45700;-82
2022/01/12 02:03:45;;;;;;;;;59.00;46.33;;;;;;;;4973175;28;47449;-82
2022/01/12 02:06:11;;;;;;;;;60.33;46.33;;;;;;;;4972480;28;46199;-82
2022/01/12 02:08:36;;;;;;;;;67.50;49.25;;;;;;;;4971337;28;45440;-82
2022/01/12 02:11:02;;;;;;;;;63.00;46.33;;;;;;;;4971735;28;45537;-82
2022/01/12 02:13:29;;;;;;;;;59.00;47.75;;;;;;;;4989492;28;46645;-81
2022/01/12 02:15:55;;;;;;;;;56.25;44.00;;;;;;;;4971802;28;45599;-82
2022/01/12 02:39:50;;;;;;;;;61.75;49.00;;;;;;;;4992358;28;46033;-82
2022/01/12 02:40:06;;;;;;;;;58.50;46.00;;;;;;;;4995967;28;45503;-82
2022/01/12 02:42:31;;;;;;;;;57.00;47.25;;;;;;;;4974659;28;45511;-82
2022/01/12 02:50:46;;;;;;;;;52.50;44.25;;;;;;;;4994197;28;46543;-81
2022/01/12 02:55:56;;;;;;;;;57.75;44.00;;;;;;;;4978556;28;45422;-80
2022/01/12 02:58:21;;;;;;;;;57.00;45.50;;;;;;;;4993275;28;45554;-82
2022/01/12 03:03:34;;;;;;;;;50.75;42.75;;;;;;;;5004591;28;45846;-82
2022/01/12 03:06:03;;;;;;;;;58.25;46.50;;;;;;;;5004449;28;45667;-82
2022/01/12 03:08:36;;;;;;;;;58.75;47.50;;;;;;;;4994676;28;45814;-81
2022/01/12 03:11:01;;;;;;;;;55.50;45.25;;;;;;;;4993712;28;45630;-82
2022/01/12 03:13:26;;;;;;;;;57.67;44.33;;;;;;;;4992421;28;45401;-82
2022/01/12 03:15:51;;;;;;;;;51.67;43.00;;;;;;;;4992243;28;45642;-81
2022/01/12 03:18:18;;;;;;;;;51.25;44.50;;;;;;;;4992988;28;45432;-82
2022/01/12 03:20:45;;;;;;;;;57.25;43.75;;;;;;;;4995402;28;45650;-82
2022/01/12 03:23:10;;;;;;;;;45.00;39.75;;;;;;;;4992845;28;45715;-82
2022/01/12 03:25:35;;;;;;;;;57.33;44.00;;;;;;;;4991292;28;45709;-82
2022/01/12 03:28:03;;;;;;;;;53.67;43.00;;;;;;;;4974254;28;45850;-81
2022/01/12 03:30:36;;;;;;;;;48.00;39.00;;;;;;;;4973963;28;45542;-82
2022/01/12 03:33:10;;;;;;;;;53.25;43.00;;;;;;;;4975163;28;45381;-79
2022/01/12 03:35:49;;;;;;;;;43.25;39.50;;;;;;;;4991977;28;46135;-82
2022/01/12 03:38:20;;;;;;;;;42.25;39.50;;;;;;;;4973445;28;45675;-82
2022/01/12 03:40:46;;;;;;;;;55.50;43.00;;;;;;;;4995298;28;45374;-82
2022/01/12 03:43:11;;;;;;;;;45.75;42.00;;;;;;;;4993031;28;45507;-82
2022/01/12 03:45:36;;;;;;;;;55.00;43.67;;;;;;;;4992117;28;46183;-82
2022/01/12 03:48:02;;;;;;;;;54.00;43.75;;;;;;;;4975528;28;45313;-82
2022/01/12 03:50:27;;;;;;;;;55.33;41.67;;;;;;;;4993130;28;45412;-82
2022/01/12 03:52:52;;;;;;;;;57.33;43.33;;;;;;;;4991900;28;45609;-83
2022/01/12 03:55:17;;;;;;;;;51.00;41.33;;;;;;;;4993974;28;45942;-82
2022/01/12 03:57:42;;;;;;;;;42.00;37.33;;;;;;;;4992106;28;45322;-82
2022/01/12 04:00:08;;;;;;;;;37.00;34.67;;;;;;;;4974923;28;45385;-81
2022/01/12 04:02:34;;;;;;;;;40.75;35.25;;;;;;;;4973385;28;45576;-81
2022/01/12 04:10:17;;;;;;;;;48.00;35.25;;;;;;;;4996133;28;45376;-82
2022/01/12 04:12:42;;;;;;;;;44.00;39.67;;;;;;;;4973748;28;45814;-82
2022/01/12 04:15:07;;;;;;;;;43.67;40.33;;;;;;;;4976646;28;46908;-81
2022/01/12 04:17:32;;;;;;;;;47.00;41.00;;;;;;;;4991182;28;45419;-82
2022/01/12 04:19:59;;;;;;;;;51.33;42.67;;;;;;;;4992436;28;45307;-82
2022/01/12 04:25:09;;;;;;;;;52.75;45.50;;;;;;;;4991284;28;45549;-81
2022/01/12 04:27:36;;;;;;;;;53.50;44.25;;;;;;;;4990881;28;45442;-81
2022/01/12 04:30:01;;;;;;;;;48.75;42.25;;;;;;;;4992395;28;45521;-81
2022/01/12 04:32:27;;;;;;;;;49.00;40.00;;;;;;;;4991981;28;45470;-81
2022/01/12 04:34:52;;;;;;;;;54.50;43.50;;;;;;;;4990438;28;46004;-82
2022/01/12 04:37:17;;;;;;;;;51.75;41.50;;;;;;;;4972744;28;45620;-81
2022/01/12 04:39:43;;;;;;;;;57.00;46.00;;;;;;;;4972614;28;45524;-81
2022/01/12 04:42:08;;;;;;;;;56.25;43.50;;;;;;;;4991403;28;45516;-81
2022/01/12 04:44:39;;;;;;;;;53.00;43.33;;;;;;;;4992388;28;46583;-81
2022/01/12 04:47:08;;;;;;;;;50.25;44.25;;;;;;;;4990669;28;45703;-81
2022/01/12 04:52:01;;;;;;;;;51.00;42.50;;;;;;;;4992237;28;45601;-81
2022/01/12 04:54:26;;;;;;;;;51.33;42.00;;;;;;;;4989876;28;46193;-81
2022/01/12 04:56:51;;;;;;;;;54.67;39.33;;;;;;;;4990603;28;45566;-82
2022/01/12 04:59:16;;;;;;;;;47.67;38.33;;;;;;;;4991093;28;45380;-81
2022/01/12 05:01:51;;;;;;;;;50.67;41.33;;;;;;;;4989951;28;45373;-82
2022/01/12 05:12:45;;;;;;;;;55.75;46.00;;;;;;;;4990247;28;45459;-81
2022/01/12 05:15:20;;;;;;;;;49.25;42.25;;;;;;;;4993476;28;45423;-82
2022/01/12 05:17:45;;;;;;;;;54.00;40.00;;;;;;;;4990058;28;45585;-82
2022/01/12 05:20:10;;;;;;;;;54.00;45.33;;;;;;;;4992982;28;45472;-82
2022/01/12 05:22:35;;;;;;;;;60.33;47.00;;;;;;;;4992202;28;45198;-81
2022/01/12 05:25:01;;;;;;;;;57.67;44.33;;;;;;;;4990283;28;45646;-81
2022/01/12 05:27:26;;;;;;;;;59.33;43.33;;;;;;;;4972721;28;45896;-81
2022/01/12 05:29:51;;;;;;;;;55.67;45.00;;;;;;;;4991033;28;45603;-81
2022/01/12 05:32:16;;;;;;;;;50.67;42.67;;;;;;;;4974463;28;45742;-82
2022/01/12 05:34:43;;;;;;;;;49.00;42.33;;;;;;;;4994082;28;46296;-82
2022/01/12 05:37:08;;;;;;;;;64.25;47.75;;;;;;;;4991392;28;45632;-82
2022/01/12 05:39:34;;;;;;;;;62.00;44.00;;;;;;;;4990652;28;45342;-82
2022/01/12 05:41:59;;;;;;;;;45.67;40.67;;;;;;;;4990858;28;45277;-82
2022/01/12 05:44:25;;;;;;;;;58.67;43.67;;;;;;;;4990397;28;45618;-82
2022/01/12 05:46:50;;;;;;;;;56.25;46.50;;;;;;;;4972926;28;45762;-82
2022/01/12 05:49:34;;;;;;;;;60.33;47.67;;;;;;;;4991010;28;45416;-82
2022/01/12 05:52:00;;;;;;;;;62.00;47.25;;;;;;;;4985648;28;45541;-82
2022/01/12 05:54:25;;;;;;;;;60.50;47.00;;;;;;;;4996444;28;47019;-82
2022/01/12 05:56:51;;;;;;;;;64.33;47.33;;;;;;;;4993032;28;45417;-82
2022/01/12 05:59:17;;;;;;;;;66.50;48.50;;;;;;;;4989755;28;45501;-82
2022/01/12 06:01:42;;;;;;;;;59.25;46.75;;;;;;;;4989072;28;45703;-81
2022/01/12 06:04:07;;;;;;;;;58.67;45.00;;;;;;;;4990056;28;46164;-82
2022/01/12 06:06:33;;;;;;;;;60.33;46.67;;;;;;;;4971777;28;45766;-82
2022/01/12 06:08:58;;;;;;;;;59.33;46.67;;;;;;;;4989081;28;45345;-82
2022/01/12 06:11:23;;;;;;;;;60.67;46.00;;;;;;;;4989228;28;45392;-82
2022/01/12 06:13:50;;;;;;;;;87.67;64.00;;;;;;;;4991011;28;45609;-82
2022/01/12 06:16:15;;;;;;;;;81.50;61.00;;;;;;;;5004814;28;45708;-82
2022/01/12 06:18:40;;;;;;;;;74.00;56.00;;;;;;;;4988812;28;45410;-82
2022/01/12 06:21:05;;;;;;;;;62.67;48.33;;;;;;;;4986738;28;45159;-82
2022/01/12 06:23:30;;;;;;;;;69.33;54.33;;;;;;;;5004150;28;46019;-82
2022/01/12 06:25:56;;;;;;;;;63.67;48.00;;;;;;;;5006000;28;45289;-82
2022/01/12 06:31:10;;;;;;;;;60.75;45.25;;;;;;;;5002412;28;45217;-82
2022/01/12 06:33:36;;;;;;;;;59.50;48.50;;;;;;;;4982324;28;47664;-81
2022/01/12 06:36:01;;;;;;;;;38.25;37.25;;;;;;;;4993303;28;45602;-81
2022/01/12 06:38:27;;;;;;;;;59.25;44.50;;;;;;;;4975757;28;45299;-82
2022/01/12 06:40:52;;;;;;;;;59.00;46.33;;;;;;;;5000607;28;45596;-82
2022/01/12 06:43:17;;;;;;;;;60.00;48.33;;;;;;;;4982403;28;47075;-82
2022/01/12 06:45:42;;;;;;;;;62.00;48.00;;;;;;;;4984705;28;45436;-81
2022/01/12 06:48:11;;;;;;;;;51.75;38.75;;;;;;;;4982869;28;45267;-82
2022/01/12 06:50:36;;;;;;;;;57.75;49.75;;;;;;;;4990932;28;45530;-82
2022/01/12 06:53:01;;;;;;;;;59.67;45.00;;;;;;;;4987379;28;45846;-82
2022/01/12 06:55:27;;;;;;;;;59.50;49.25;;;;;;;;4998499;28;45486;-82
2022/01/12 06:57:52;;;;;;;;;51.25;44.00;;;;;;;;4994549;28;45444;-82
2022/01/12 07:00:17;;;;;;;;;64.67;44.67;;;;;;;;4995735;28;45556;-82
2022/01/12 07:02:42;;;;;;;;;60.33;50.00;;;;;;;;4982185;28;48721;-82
2022/01/12 07:05:08;;;;;;;;;57.67;46.00;;;;;;;;4989399;28;45846;-81
2022/01/12 07:07:33;;;;;;;;;55.00;42.33;;;;;;;;4989878;28;45020;-82
2022/01/12 07:09:58;;;;;;;;;61.67;48.33;;;;;;;;4990378;28;45073;-82
2022/01/12 07:12:23;;;;;;;;;63.00;47.00;;;;;;;;5010937;28;45693;-81
2022/01/12 07:14:48;;;;;;;;;63.67;50.67;;;;;;;;4991838;28;45227;-79
2022/01/12 07:17:14;;;;;;;;;63.33;47.67;;;;;;;;4992755;28;45350;-81
2022/01/12 07:19:39;;;;;;;;;59.00;47.25;;;;;;;;4992816;28;45011;-82
2022/01/12 07:22:05;;;;;;;;;65.75;50.25;;;;;;;;4990060;28;47254;-81
2022/01/12 07:24:30;;;;;;;;;59.67;46.67;;;;;;;;4995461;28;45684;-82
2022/01/12 07:26:55;;;;;;;;;60.00;47.67;;;;;;;;4975451;28;45408;-82
2022/01/12 07:29:20;;;;;;;;;64.00;46.33;;;;;;;;4973840;28;45740;-82
2022/01/12 07:31:48;;;;;;;;;68.33;49.67;;;;;;;;4991973;28;46230;-82
2022/01/12 07:34:14;;;;;;;;;58.25;48.00;;;;;;;;4993833;28;45634;-85
2022/01/12 07:36:40;;;;;;;;;60.25;49.25;;;;;;;;4983462;28;45437;-85
2022/01/12 07:39:05;;;;;;;;;58.50;48.00;;;;;;;;5008256;28;45191;-83
2022/01/12 07:41:31;;;;;;;;;62.00;47.67;;;;;;;;4992216;28;46976;-83
2022/01/12 07:43:56;;;;;;;;;65.67;51.67;;;;;;;;4983445;28;45381;-82
2022/01/12 07:46:21;;;;;;;;;55.00;44.00;;;;;;;;5007008;28;45517;-83
2022/01/12 07:48:46;;;;;;;;;58.00;46.67;;;;;;;;4993217;28;45319;-83
2022/01/12 07:51:12;;;;;;;;;55.67;46.33;;;;;;;;4992136;28;47620;-83
2022/01/12 07:53:37;;;;;;;;;63.00;48.33;;;;;;;;5010111;28;45286;-83
2022/01/12 07:56:03;;;;;;;;;62.00;49.33;;;;;;;;5010133;28;45153;-86
2022/01/12 07:58:28;;;;;;;;;59.25;48.00;;;;;;;;4992567;28;45059;-84
2022/01/12 08:00:53;;;;;;;;;67.00;51.00;;;;;;;;5013932;28;45323;-85
2022/01/12 08:03:20;;;;;;;;;64.00;51.50;;;;;;;;4986142;28;45429;-84
2022/01/12 08:05:46;;;;;;;;;61.75;49.75;;;;;;;;4997512;28;45575;-83
2022/01/12 08:08:12;;;;;;;;;66.33;52.00;;;;;;;;5007350;28;45372;-86
2022/01/12 08:10:37;;;;;;;;;45.75;35.25;;;;;;;;5009842;28;45775;-81
2022/01/12 08:13:02;;;;;;;;;61.67;48.00;;;;;;;;5010305;28;45086;-84
2022/01/12 08:15:28;;;;;;;;;61.33;46.67;;;;;;;;5008964;28;45062;-84
2022/01/12 08:17:53;;;;;;;;;48.33;43.00;;;;;;;;5014268;28;45252;-87
2022/01/12 08:20:22;;;;;;;;;60.00;48.33;;;;;;;;4989803;28;47050;-83
2022/01/12 08:22:47;;;;;;;;;66.00;52.00;;;;;;;;4986665;28;45697;-84
2022/01/12 08:25:12;;;;;;;;;63.33;51.33;;;;;;;;4997258;28;45411;-81
2022/01/12 08:27:38;;;;;;;;;61.67;48.00;;;;;;;;4994092;28;45503;-82
2022/01/12 08:30:04;;;;;;;;;65.00;49.50;;;;;;;;4978907;28;47561;-81
2022/01/12 08:32:30;;;;;;;;;66.25;50.00;;;;;;;;4978984;28;45646;-85
2022/01/12 08:34:55;;;;;;;;;64.67;53.00;;;;;;;;5014385;28;44747;-81
2022/01/12 08:37:21;;;;;;;;;61.50;46.75;;;;;;;;5025841;28;45162;-82
2022/01/12 08:39:46;;;;;;;;;66.75;54.50;;;;;;;;4993376;28;46242;-82
2022/01/12 08:42:11;;;;;;;;;74.00;58.00;;;;;;;;4976666;28;45591;-82
2022/01/12 08:44:37;;;;;;;;;73.33;54.00;;;;;;;;5004274;28;45965;-82
2022/01/12 08:47:03;;;;;;;;;67.00;53.33;;;;;;;;5006314;28;45226;-82
2022/01/12 08:49:28;;;;;;;;;64.00;51.50;;;;;;;;4976183;28;47947;-82
2022/01/12 08:51:53;;;;;;;;;59.00;49.33;;;;;;;;4997452;28;45477;-81
2022/01/12 08:54:18;;;;;;;;;61.33;51.33;;;;;;;;4993862;28;45522;-81
2022/01/12 08:56:44;;;;;;;;;68.00;53.25;;;;;;;;4995177;28;45819;-82
2022/01/12 08:59:09;;;;;;;;;60.25;47.50;;;;;;;;4978795;28;47513;-85
2022/01/12 09:01:34;;;;;;;;;62.67;49.00;;;;;;;;5000575;28;45399;-81
2022/01/12 09:03:59;;;;;;;;;62.67;50.67;;;;;;;;4997182;28;45732;-83
2022/01/12 09:06:25;;;;;;;;;63.67;51.00;;;;;;;;5005459;28;45260;-83
2022/01/12 09:08:50;;;;;;;;;60.67;48.67;;;;;;;;4984737;28;46134;-83
2022/01/12 09:11:15;;;;;;;;;61.00;51.33;;;;;;;;4999454;28;45407;-83
2022/01/12 09:13:41;;;;;;;;;71.25;54.00;;;;;;;;5002102;28;45411;-83
2022/01/12 09:16:08;;;;;;;;;70.00;53.67;;;;;;;;4994632;28;45489;-83
2022/01/12 09:18:34;;;;;;;;;67.00;52.25;;;;;;;;4992905;28;46117;-83
2022/01/12 09:20:59;;;;;;;;;69.00;56.50;;;;;;;;4977841;28;45493;-83
2022/01/12 09:23:25;;;;;;;;;59.00;47.25;;;;;;;;4975233;28;45383;-83
2022/01/12 09:25:50;;;;;;;;;65.00;52.33;;;;;;;;4974814;28;45369;-83
2022/01/12 09:28:17;;;;;;;;;68.33;53.00;;;;;;;;4990309;28;45383;-83
2022/01/12 09:30:42;;;;;;;;;66.75;54.00;;;;;;;;4992149;28;45629;-82
2022/01/12 09:33:07;;;;;;;;;73.00;54.00;;;;;;;;4991003;28;45820;-83
2022/01/12 09:35:33;;;;;;;;;73.67;57.00;;;;;;;;4990626;28;45451;-83
2022/01/12 09:37:58;;;;;;;;;69.00;53.33;;;;;;;;4989752;28;46809;-82
2022/01/12 09:40:23;;;;;;;;;65.00;53.33;;;;;;;;4992503;28;45288;-83
2022/01/12 09:42:48;;;;;;;;;67.00;54.00;;;;;;;;4992242;28;45463;-81
2022/01/12 09:45:16;;;;;;;;;74.50;58.00;;;;;;;;4991129;28;45383;-83
2022/01/12 09:47:43;;;;;;;;;73.50;56.00;;;;;;;;4976328;28;47960;-83
2022/01/12 09:50:09;;;;;;;;;70.00;55.50;;;;;;;;4977642;28;45905;-83
2022/01/12 09:52:35;;;;;;;;;67.25;53.75;;;;;;;;4995785;28;45593;-83
2022/01/12 09:55:00;;;;;;;;;62.67;52.00;;;;;;;;4990042;28;45659;-82
2022/01/12 09:57:25;;;;;;;;;71.67;54.67;;;;;;;;4991277;28;45899;-83
2022/01/12 09:59:50;;;;;;;;;72.00;57.00;;;;;;;;4976589;28;45701;-83
2022/01/12 10:02:17;;;;;;;;;75.33;58.33;;;;;;;;4981406;28;45382;-83
2022/01/12 10:04:42;;;;;;;;;70.25;55.00;;;;;;;;5001117;28;45571;-82
2022/01/12 10:07:07;;;;;;;;;68.00;55.00;;;;;;;;5002955;28;45855;-83
2022/01/12 10:09:41;;;;;;;;;74.33;57.00;;;;;;;;4988303;28;45361;-83
2022/01/12 10:12:13;;;;;;;;;73.25;56.75;;;;;;;;4985675;28;45193;-83
2022/01/12 10:14:38;;;;;;;;;76.00;59.75;;;;;;;;5003526;28;45323;-83
2022/01/12 10:17:03;;;;;;;;;72.33;54.33;;;;;;;;5000405;28;45400;-83
2022/01/12 10:19:30;;;;;;;;;67.33;54.67;;;;;;;;5004467;28;45106;-83
2022/01/12 10:21:56;;;;;;;;;80.50;57.00;;;;;;;;5008280;28;45005;-82
2022/01/12 10:24:22;;;;;;;;;71.50;57.00;;;;;;;;5002792;28;44997;-83
2022/01/12 10:26:48;;;;;;;;;73.25;56.00;;;;;;;;5001139;28;45834;-83
2022/01/12 10:29:17;;;;;;;;;76.50;58.50;;;;;;;;5005902;28;45331;-83
2022/01/12 10:31:45;;;;;;;;;68.25;55.25;;;;;;;;5005489;28;45415;-83
2022/01/12 10:34:11;;;;;;;;;69.75;56.25;;;;;;;;5007878;28;45193;-83
2022/01/12 10:36:40;;;;;;;;;78.50;59.75;;;;;;;;5007309;28;45444;-83
2022/01/12 10:39:06;;;;;;;;;70.75;56.00;;;;;;;;4990484;28;45206;-83
2022/01/12 10:41:32;;;;;;;;;74.50;57.25;;;;;;;;5008341;28;45170;-83
2022/01/12 10:43:57;;;;;;;;;75.00;55.67;;;;;;;;5007087;28;45041;-83
2022/01/12 10:46:26;;;;;;;;;73.33;58.67;;;;;;;;5006775;28;45880;-83
2022/01/12 10:48:52;;;;;;;;;75.25;58.00;;;;;;;;5011360;28;45130;-83
2022/01/12 10:51:20;;;;;;;;;72.50;55.00;;;;;;;;4979502;28;45760;-83
2022/01/12 10:53:46;;;;;;;;;71.75;56.50;;;;;;;;4974154;28;45588;-83
2022/01/12 10:56:18;;;;;;;;;78.25;61.00;;;;;;;;4974867;28;47373;-83
2022/01/12 10:58:45;;;;;;;;;74.25;58.00;;;;;;;;4974648;28;45510;-83
2022/01/12 11:01:11;;;;;;;;;72.00;56.25;;;;;;;;4993490;28;45755;-83
2022/01/12 11:03:38;;;;;;;;;75.25;58.50;;;;;;;;4974633;28;45816;-83
2022/01/12 11:06:04;;;;;;;;;74.25;57.25;;;;;;;;4974382;28;47414;-83
2022/01/12 11:08:29;;;;;;;;;69.50;55.00;;;;;;;;4973936;28;45532;-83
2022/01/12 11:10:56;;;;;;;;;77.00;59.00;;;;;;;;4992958;28;45379;-83
2022/01/12 11:13:21;;;;;;;;;78.50;61.00;;;;;;;;4974336;28;45426;-82
2022/01/12 11:15:47;;;;;;;;;76.00;57.50;;;;;;;;4974227;28;48016;-83
2022/01/12 11:18:14;;;;;;;;;74.75;57.00;;;;;;;;4992417;28;45659;-83
2022/01/12 11:20:40;;;;;;;;;71.50;58.00;;;;;;;;4991731;28;45371;-83
2022/01/12 11:23:11;;;;;;;;;75.00;57.75;;;;;;;;4973958;28;45468;-83
2022/01/12 11:25:41;;;;;;;;;71.75;58.25;;;;;;;;4992096;28;46321;-83
2022/01/12 11:28:07;;;;;;;;;78.50;59.75;;;;;;;;4974326;28;45629;-83
2022/01/12 11:30:35;;;;;;;;;75.33;58.33;;;;;;;;4974303;28;45554;-82
2022/01/12 11:33:05;;;;;;;;;71.00;55.25;;;;;;;;4974673;28;45715;-82
2022/01/12 11:35:36;;;;;;;;;72.75;57.50;;;;;;;;4973751;28;46919;-83
2022/01/12 11:38:02;;;;;;;;;79.50;60.00;;;;;;;;4992391;28;45523;-83
2022/01/12 11:40:40;;;;;;;;;81.25;61.75;;;;;;;;4992108;28;45634;-83
2022/01/12 11:43:19;;;;;;;;;75.75;58.00;;;;;;;;4974212;28;45520;-82
2022/01/12 11:45:45;;;;;;;;;77.25;58.50;;;;;;;;4992140;28;46165;-83
2022/01/12 11:48:10;;;;;;;;;85.00;61.33;;;;;;;;4992513;28;45451;-83
2022/01/12 11:50:35;;;;;;;;;78.50;58.75;;;;;;;;4991794;28;45296;-83
2022/01/12 11:53:00;;;;;;;;;71.00;57.33;;;;;;;;4992001;28;45405;-83
2022/01/12 11:55:31;;;;;;;;;83.33;59.00;;;;;;;;4991465;28;47074;-83
2022/01/12 11:58:02;;;;;;;;;77.00;57.25;;;;;;;;4990522;28;45619;-83
2022/01/12 12:00:30;;;;;;;;;70.75;55.75;;;;;;;;4973908;28;45661;-83
2022/01/12 12:02:56;;;;;;;;;74.75;56.75;;;;;;;;4992083;28;45462;-83
2022/01/12 12:05:23;;;;;;;;;71.50;55.50;;;;;;;;4991169;28;46181;-83
2022/01/12 12:07:49;;;;;;;;;77.75;59.50;;;;;;;;4973326;28;45699;-84
2022/01/12 12:10:16;;;;;;;;;79.00;59.75;;;;;;;;4992168;28;45385;-82
2022/01/12 12:12:41;;;;;;;;;77.00;60.00;;;;;;;;4991295;28;45408;-83
2022/01/12 12:15:08;;;;;;;;;75.00;58.67;;;;;;;;4991851;28;45626;-83
2022/01/12 12:17:34;;;;;;;;;78.75;59.00;;;;;;;;4973726;28;45910;-83
2022/01/12 12:20:00;;;;;;;;;74.25;58.00;;;;;;;;4973656;28;45476;-83
2022/01/12 12:22:30;;;;;;;;;78.00;59.50;;;;;;;;4991216;28;45649;-83
2022/01/12 12:24:55;;;;;;;;;79.25;59.25;;;;;;;;4973553;28;46867;-83
2022/01/12 12:27:21;;;;;;;;;79.50;60.25;;;;;;;;4990952;28;45393;-83
2022/01/12 12:29:48;;;;;;;;;78.50;60.75;;;;;;;;4991664;28;45599;-83
2022/01/12 12:32:13;;;;;;;;;74.00;58.50;;;;;;;;4991411;28;45552;-83
2022/01/12 12:34:40;;;;;;;;;81.50;62.00;;;;;;;;4990645;28;46163;-82
2022/01/12 12:37:07;;;;;;;;;75.00;59.25;;;;;;;;4991208;28;45471;-82
2022/01/12 12:39:34;;;;;;;;;74.00;56.00;;;;;;;;4990960;28;45870;-82
2022/01/12 12:42:00;;;;;;;;;78.25;59.50;;;;;;;;4991302;28;45502;-82
2022/01/12 12:44:27;;;;;;;;;82.00;60.75;;;;;;;;4990928;28;45591;-82
2022/01/12 12:47:04;;;;;;;;;76.75;59.25;;;;;;;;4973456;28;45714;-82
2022/01/12 12:49:29;;;;;;;;;75.25;57.75;;;;;;;;4990724;28;45818;-82
2022/01/12 12:52:00;;;;;;;;;76.67;59.00;;;;;;;;4990971;28;45369;-82
2022/01/12 12:54:25;;;;;;;;;72.00;57.50;;;;;;;;4990774;28;45645;-82
2022/01/12 12:56:53;;;;;;;;;73.67;58.33;;;;;;;;4990646;28;45519;-85
2022/01/12 12:59:20;;;;;;;;;73.50;59.50;;;;;;;;4973326;28;45461;-83
2022/01/12 13:01:45;;;;;;;;;80.75;58.25;;;;;;;;4990651;28;45509;-83
2022/01/12 13:04:11;;;;;;;;;67.67;53.33;;;;;;;;4972941;28;48280;-83
2022/01/12 13:06:36;;;;;;;;;75.75;58.00;;;;;;;;4990403;28;45418;-83
2022/01/12 13:09:06;;;;;;;;;74.50;57.75;;;;;;;;4970550;28;45555;-82
2022/01/12 13:11:35;;;;;;;;;76.75;58.50;;;;;;;;4990985;28;45418;-83
2022/01/12 13:14:02;;;;;;;;;73.75;57.00;;;;;;;;4998316;28;45478;-82
2022/01/12 13:16:27;;;;;;;;;71.25;56.00;;;;;;;;4974965;28;46082;-82
2022/01/12 13:19:05;;;;;;;;;73.25;55.75;;;;;;;;4973520;28;45554;-83
2022/01/12 13:21:31;;;;;;;;;72.75;55.25;;;;;;;;4990441;28;45493;-82
2022/01/12 13:23:58;;;;;;;;;72.75;56.00;;;;;;;;4973416;28;48281;-83
2022/01/12 13:26:25;;;;;;;;;69.75;55.25;;;;;;;;4993795;28;45316;-83
2022/01/12 13:28:50;;;;;;;;;72.50;58.00;;;;;;;;4990066;28;45434;-83
2022/01/12 13:31:18;;;;;;;;;75.00;56.00;;;;;;;;5008421;28;45136;-83
2022/01/12 13:33:47;;;;;;;;;75.75;56.50;;;;;;;;5007914;28;45438;-82
2022/01/12 13:36:16;;;;;;;;;80.00;60.75;;;;;;;;5009197;28;44984;-82
2022/01/12 13:38:43;;;;;;;;;72.75;54.75;;;;;;;;5008743;28;45100;-82
2022/01/12 13:41:09;;;;;;;;;75.50;56.75;;;;;;;;5008617;28;45101;-82
2022/01/12 13:43:35;;;;;;;;;72.75;57.00;;;;;;;;5008734;28;45329;-83
2022/01/12 13:46:12;;;;;;;;;75.00;57.50;;;;;;;;5009036;28;45131;-82
2022/01/12 13:48:37;;;;;;;;;73.75;58.00;;;;;;;;4994109;28;45517;-82
2022/01/12 13:51:03;;;;;;;;;77.00;58.00;;;;;;;;4990184;28;45441;-82
2022/01/12 13:53:37;;;;;;;;;75.75;57.50;;;;;;;;4971696;28;46225;-83
2022/01/12 13:56:03;;;;;;;;;66.25;54.25;;;;;;;;4990073;28;45397;-82
2022/01/12 13:58:29;;;;;;;;;74.75;55.50;;;;;;;;4990146;28;45254;-82
2022/01/12 14:00:58;;;;;;;;;75.50;57.75;;;;;;;;4990446;28;45753;-82
2022/01/12 14:03:25;;;;;;;;;70.75;55.25;;;;;;;;4971748;28;47589;-82
2022/01/12 14:05:58;;;;;;;;;72.00;56.00;;;;;;;;4972317;28;45934;-83
2022/01/12 14:08:28;;;;;;;;;73.50;54.50;;;;;;;;4989816;28;45548;-83
2022/01/12 14:10:55;;;;;;;;;70.75;55.50;;;;;;;;4971879;28;45774;-82
2022/01/12 14:13:30;;;;;;;;;68.75;55.75;;;;;;;;4989534;28;46675;-83
2022/01/12 14:16:11;;;;;;;;;69.75;54.25;;;;;;;;4990345;28;46022;-82
2022/01/12 14:18:37;;;;;;;;;70.00;53.50;;;;;;;;4971825;28;45442;-82
2022/01/12 14:21:16;;;;;;;;;68.75;55.25;;;;;;;;4989800;28;45684;-83
2022/01/12 14:23:42;;;;;;;;;69.00;54.25;;;;;;;;4971418;28;47185;-83
2022/01/12 14:26:08;;;;;;;;;71.33;54.00;;;;;;;;4990185;28;45490;-83
2022/01/12 14:28:34;;;;;;;;;64.75;53.50;;;;;;;;4971780;28;45487;-82
2022/01/12 14:31:00;;;;;;;;;67.25;53.25;;;;;;;;4989877;28;45411;-82
2022/01/12 14:33:25;;;;;;;;;64.25;52.75;;;;;;;;4988803;28;46991;-82
2022/01/12 14:35:51;;;;;;;;;74.67;58.33;;;;;;;;4989589;28;45380;-83
2022/01/12 14:38:17;;;;;;;;;63.50;52.00;;;;;;;;4989476;28;45454;-82
2022/01/12 14:40:42;;;;;;;;;67.25;53.00;;;;;;;;4989108;28;45656;-83
2022/01/12 14:43:08;;;;;;;;;71.33;56.67;;;;;;;;4972160;28;47148;-83
2022/01/12 14:45:39;;;;;;;;;74.75;56.50;;;;;;;;4989303;28;46030;-82
2022/01/12 14:48:08;;;;;;;;;69.25;55.00;;;;;;;;4989507;28;45621;-82
2022/01/12 14:50:34;;;;;;;;;72.50;57.75;;;;;;;;4971423;28;45516;-82
2022/01/12 14:53:00;;;;;;;;;67.25;52.25;;;;;;;;4971275;28;47333;-83
2022/01/12 14:55:26;;;;;;;;;69.50;53.00;;;;;;;;4970566;28;46058;-83
2022/01/12 14:57:51;;;;;;;;;68.00;52.75;;;;;;;;4989795;28;45486;-83
2022/01/12 15:00:24;;;;;;;;;75.75;57.00;;;;;;;;4971982;28;45582;-82
2022/01/12 15:02:49;;;;;;;;;69.25;53.50;;;;;;;;4989085;28;45538;-82
2022/01/12 15:05:14;;;;;;;;;69.00;56.67;;;;;;;;4971257;28;46589;-82
2022/01/12 15:07:39;;;;;;;;;70.00;54.67;;;;;;;;4971053;28;45600;-82
2022/01/12 15:10:07;;;;;;;;;73.00;57.00;;;;;;;;4971285;28;45639;-82
2022/01/12 15:12:37;;;;;;;;;70.25;54.75;;;;;;;;4989156;28;46281;-82
2022/01/12 15:15:07;;;;;;;;;72.75;56.25;;;;;;;;4971721;28;45660;-82
2022/01/12 15:17:32;;;;;;;;;69.00;56.00;;;;;;;;4970661;28;45491;-82
2022/01/12 15:19:57;;;;;;;;;61.00;47.67;;;;;;;;4989707;28;45415;-83
2022/01/12 15:22:23;;;;;;;;;77.00;57.67;;;;;;;;4988508;28;46695;-83
2022/01/12 15:24:48;;;;;;;;;68.50;56.25;;;;;;;;4988446;28;45637;-82
2022/01/12 15:27:14;;;;;;;;;73.00;56.33;;;;;;;;4989237;28;45607;-82
2022/01/12 15:29:39;;;;;;;;;72.00;58.00;;;;;;;;4971015;28;45645;-82
2022/01/12 15:32:04;;;;;;;;;71.67;54.33;;;;;;;;4990081;28;46230;-83
2022/01/12 15:34:30;;;;;;;;;71.50;56.00;;;;;;;;4992340;28;45737;-83